Manilla, Indiana
Current Conditions -  °F | °C
As of 5:53 PM on Tuesday 27 Jan 2015 (Local Time) from KGEZ Reporting Station
Clear Clear  
Wind Chill: 22°   Ceiling: Unl
Heat Index: 29°   Visibility: 10mi
Dew Point: 13°   Wind: 7mph
Humidity: 51%   Direction: 10°N
Pressure: 30.16"   Gusts: NA
Location:  39.57°N, 85.62°W
Report Text: KGEZ 272253Z AUTO 01006KT 10SM CLR M02/M11 A3016 RMK AO2 SLP223 T10171106
Loading
Personal Weather Stations






























Interactive Weather Map New forecast layout! Learn more

10-Day Weather Forecast

Advertisements
Track Severe Weather on mobile